sensor_id;sensor_type;location;lat;lon;timestamp;temperature;humidity
73509;SHT30;61750;55.036;73.312;2023-03-01T00:01:20;0.83;81.25
73509;SHT30;61750;55.036;73.312;2023-03-01T00:03:51;0.84;81.26
73509;SHT30;61750;55.036;73.312;2023-03-01T00:06:27;0.81;81.21
73509;SHT30;61750;55.036;73.312;2023-03-01T00:08:58;0.83;81.27
73509;SHT30;61750;55.036;73.312;2023-03-01T00:11:34;0.85;81.31
73509;SHT30;61750;55.036;73.312;2023-03-01T00:14:01;0.84;81.20
73509;SHT30;61750;55.036;73.312;2023-03-01T00:16:28;0.83;81.18
73509;SHT30;61750;55.036;73.312;2023-03-01T00:18:55;0.84;81.23
73509;SHT30;61750;55.036;73.312;2023-03-01T00:21:21;0.84;81.18
73509;SHT30;61750;55.036;73.312;2023-03-01T00:23:50;0.85;81.15
73509;SHT30;61750;55.036;73.312;2023-03-01T00:26:17;0.85;81.17
73509;SHT30;61750;55.036;73.312;2023-03-01T00:28:43;0.85;81.20
73509;SHT30;61750;55.036;73.312;2023-03-01T00:31:13;0.88;81.22
73509;SHT30;61750;55.036;73.312;2023-03-01T00:33:40;0.87;81.15
73509;SHT30;61750;55.036;73.312;2023-03-01T00:36:06;0.90;81.11
73509;SHT30;61750;55.036;73.312;2023-03-01T00:38:41;0.90;81.16
73509;SHT30;61750;55.036;73.312;2023-03-01T00:41:13;0.91;81.21
73509;SHT30;61750;55.036;73.312;2023-03-01T00:43:49;0.90;81.32
73509;SHT30;61750;55.036;73.312;2023-03-01T00:46:16;0.92;81.41
73509;SHT30;61750;55.036;73.312;2023-03-01T00:48:43;0.95;81.43
73509;SHT30;61750;55.036;73.312;2023-03-01T00:51:10;0.97;81.36
73509;SHT30;61750;55.036;73.312;2023-03-01T00:53:46;0.95;81.39
73509;SHT30;61750;55.036;73.312;2023-03-01T00:56:13;1.00;81.40
73509;SHT30;61750;55.036;73.312;2023-03-01T00:58:44;1.00;81.40
73509;SHT30;61750;55.036;73.312;2023-03-01T01:01:11;1.01;81.44
73509;SHT30;61750;55.036;73.312;2023-03-01T01:03:59;1.02;81.45
73509;SHT30;61750;55.036;73.312;2023-03-01T01:06:31;1.02;81.39
73509;SHT30;61750;55.036;73.312;2023-03-01T01:08:58;1.05;81.39
73509;SHT30;61750;55.036;73.312;2023-03-01T01:11:34;1.04;81.25
73509;SHT30;61750;55.036;73.312;2023-03-01T01:14:03;1.02;81.20
73509;SHT30;61750;55.036;73.312;2023-03-01T01:16:29;1.08;81.15
73509;SHT30;61750;55.036;73.312;2023-03-01T01:18:56;1.07;81.10
73509;SHT30;61750;55.036;73.312;2023-03-01T01:21:29;1.11;80.89
73509;SHT30;61750;55.036;73.312;2023-03-01T01:23:56;1.11;80.71
73509;SHT30;61750;55.036;73.312;2023-03-01T01:26:33;1.11;80.77
73509;SHT30;61750;55.036;73.312;2023-03-01T01:29:04;1.12;80.75
73509;SHT30;61750;55.036;73.312;2023-03-01T01:31:36;1.11;80.65
73509;SHT30;61750;55.036;73.312;2023-03-01T01:34:03;1.12;80.66
73509;SHT30;61750;55.036;73.312;2023-03-01T01:36:34;1.15;80.64
73509;SHT30;61750;55.036;73.312;2023-03-01T01:39:00;1.14;80.61
73509;SHT30;61750;55.036;73.312;2023-03-01T01:41:27;1.18;80.61
73509;SHT30;61750;55.036;73.312;2023-03-01T01:46:55;1.18;80.55
73509;SHT30;61750;55.036;73.312;2023-03-01T01:49:26;1.17;80.50
73509;SHT30;61750;55.036;73.312;2023-03-01T01:52:11;1.21;80.58
73509;SHT30;61750;55.036;73.312;2023-03-01T01:54:46;1.17;80.55
73509;SHT30;61750;55.036;73.312;2023-03-01T01:57:35;1.24;80.43
73509;SHT30;61750;55.036;73.312;2023-03-01T02:00:07;1.24;79.77
73509;SHT30;61750;55.036;73.312;2023-03-01T02:03:09;1.30;79.55
73509;SHT30;61750;55.036;73.312;2023-03-01T02:05:55;1.32;79.48
73509;SHT30;61750;55.036;73.312;2023-03-01T02:08:23;1.32;79.55
73509;SHT30;61750;55.036;73.312;2023-03-01T02:10:50;1.31;79.53
73509;SHT30;61750;55.036;73.312;2023-03-01T02:13:27;1.36;79.58
73509;SHT30;61750;55.036;73.312;2023-03-01T02:15:55;1.35;79.67
73509;SHT30;61750;55.036;73.312;2023-03-01T02:18:25;1.36;79.72
73509;SHT30;61750;55.036;73.312;2023-03-01T02:21:21;1.39;79.76
73509;SHT30;61750;55.036;73.312;2023-03-01T02:24:05;1.44;79.63
73509;SHT30;61750;55.036;73.312;2023-03-01T02:26:40;1.46;79.48
73509;SHT30;61750;55.036;73.312;2023-03-01T02:29:08;1.48;79.39
73509;SHT30;61750;55.036;73.312;2023-03-01T02:31:39;1.49;79.41
73509;SHT30;61750;55.036;73.312;2023-03-01T02:34:14;1.54;79.16
73509;SHT30;61750;55.036;73.312;2023-03-01T02:36:43;1.59;79.02
73509;SHT30;61750;55.036;73.312;2023-03-01T02:39:17;1.63;78.92
73509;SHT30;61750;55.036;73.312;2023-03-01T02:41:46;1.67;78.73
73509;SHT30;61750;55.036;73.312;2023-03-01T02:44:18;1.66;78.65
73509;SHT30;61750;55.036;73.312;2023-03-01T02:46:50;1.67;78.77
73509;SHT30;61750;55.036;73.312;2023-03-01T02:49:26;1.69;78.89
73509;SHT30;61750;55.036;73.312;2023-03-01T02:55:15;1.76;78.77
73509;SHT30;61750;55.036;73.312;2023-03-01T02:57:49;1.77;78.56
73509;SHT30;61750;55.036;73.312;2023-03-01T03:00:19;1.85;78.60
73509;SHT30;61750;55.036;73.312;2023-03-01T03:02:58;1.90;78.37
73509;SHT30;61750;55.036;73.312;2023-03-01T03:05:28;1.93;78.23
73509;SHT30;61750;55.036;73.312;2023-03-01T03:07:58;2.02;78.06
73509;SHT30;61750;55.036;73.312;2023-03-01T03:10:31;2.06;77.87
73509;SHT30;61750;55.036;73.312;2023-03-01T03:13:11;2.09;78.10
73509;SHT30;61750;55.036;73.312;2023-03-01T03:15:38;2.11;78.15
73509;SHT30;61750;55.036;73.312;2023-03-01T03:18:06;2.06;78.36
73509;SHT30;61750;55.036;73.312;2023-03-01T03:20:32;1.99;78.64
73509;SHT30;61750;55.036;73.312;2023-03-01T03:22:58;2.03;78.87
73509;SHT30;61750;55.036;73.312;2023-03-01T03:25:25;2.07;78.95
73509;SHT30;61750;55.036;73.312;2023-03-01T03:27:51;2.11;79.35
73509;SHT30;61750;55.036;73.312;2023-03-01T03:30:23;2.09;79.87
73509;SHT30;61750;55.036;73.312;2023-03-01T03:32:58;2.20;80.03
73509;SHT30;61750;55.036;73.312;2023-03-01T03:35:27;2.26;79.86
73509;SHT30;61750;55.036;73.312;2023-03-01T03:38:09;2.38;79.80
73509;SHT30;61750;55.036;73.312;2023-03-01T03:40:41;2.42;79.85
73509;SHT30;61750;55.036;73.312;2023-03-01T03:43:15;2.51;79.81
73509;SHT30;61750;55.036;73.312;2023-03-01T03:45:48;2.50;79.79
73509;SHT30;61750;55.036;73.312;2023-03-01T03:48:17;2.38;80.19
73509;SHT30;61750;55.036;73.312;2023-03-01T03:50:47;2.27;80.96
73509;SHT30;61750;55.036;73.312;2023-03-01T03:53:13;2.19;81.39
73509;SHT30;61750;55.036;73.312;2023-03-01T03:55:39;2.13;82.05
73509;SHT30;61750;55.036;73.312;2023-03-01T03:58:06;2.07;82.54
73509;SHT30;61750;55.036;73.312;2023-03-01T04:00:41;1.96;82.90
73509;SHT30;61750;55.036;73.312;2023-03-01T04:03:13;1.93;83.37
73509;SHT30;61750;55.036;73.312;2023-03-01T04:05:40;1.87;83.82
73509;SHT30;61750;55.036;73.312;2023-03-01T04:08:07;1.86;83.93
73509;SHT30;61750;55.036;73.312;2023-03-01T04:10:39;1.89;84.29
73509;SHT30;61750;55.036;73.312;2023-03-01T04:13:06;1.95;84.17
73509;SHT30;61750;55.036;73.312;2023-03-01T04:15:37;1.99;84.06
73509;SHT30;61750;55.036;73.312;2023-03-01T04:18:04;1.96;84.04
73509;SHT30;61750;55.036;73.312;2023-03-01T04:20:32;1.93;83.83
73509;SHT30;61750;55.036;73.312;2023-03-01T04:23:04;1.93;83.98
73509;SHT30;61750;55.036;73.312;2023-03-01T04:25:49;1.95;83.86
73509;SHT30;61750;55.036;73.312;2023-03-01T04:28:31;2.02;83.90
73509;SHT30;61750;55.036;73.312;2023-03-01T04:31:02;2.10;83.95
73509;SHT30;61750;55.036;73.312;2023-03-01T04:33:49;2.14;83.39
73509;SHT30;61750;55.036;73.312;2023-03-01T04:36:27;2.21;83.39
73509;SHT30;61750;55.036;73.312;2023-03-01T04:38:54;2.27;83.34
73509;SHT30;61750;55.036;73.312;2023-03-01T04:41:24;2.31;82.79
73509;SHT30;61750;55.036;73.312;2023-03-01T04:43:51;2.33;82.50
73509;SHT30;61750;55.036;73.312;2023-03-01T04:46:18;2.51;82.69
73509;SHT30;61750;55.036;73.312;2023-03-01T04:48:45;2.62;82.08
73509;SHT30;61750;55.036;73.312;2023-03-01T04:51:15;2.68;81.58
73509;SHT30;61750;55.036;73.312;2023-03-01T04:53:42;2.72;81.28
73509;SHT30;61750;55.036;73.312;2023-03-01T04:56:19;2.91;81.44
73509;SHT30;61750;55.036;73.312;2023-03-01T04:58:45;2.96;80.65
73509;SHT30;61750;55.036;73.312;2023-03-01T05:01:12;3.01;80.48
73509;SHT30;61750;55.036;73.312;2023-03-01T05:03:41;2.99;80.20
73509;SHT30;61750;55.036;73.312;2023-03-01T05:06:09;2.92;80.18
73509;SHT30;61750;55.036;73.312;2023-03-01T05:08:43;2.92;80.31
73509;SHT30;61750;55.036;73.312;2023-03-01T05:11:13;2.85;80.46
73509;SHT30;61750;55.036;73.312;2023-03-01T05:13:40;2.88;80.62
73509;SHT30;61750;55.036;73.312;2023-03-01T05:16:21;2.87;80.56
73509;SHT30;61750;55.036;73.312;2023-03-01T05:18:53;2.96;80.34
73509;SHT30;61750;55.036;73.312;2023-03-01T05:21:28;2.94;80.40
73509;SHT30;61750;55.036;73.312;2023-03-01T05:23:54;2.84;80.36
73509;SHT30;61750;55.036;73.312;2023-03-01T05:26:21;2.85;80.49
73509;SHT30;61750;55.036;73.312;2023-03-01T05:28:52;2.84;80.88
73509;SHT30;61750;55.036;73.312;2023-03-01T05:31:24;2.96;80.85
73509;SHT30;61750;55.036;73.312;2023-03-01T05:33:52;3.02;80.06
73509;SHT30;61750;55.036;73.312;2023-03-01T05:36:19;3.20;79.98
73509;SHT30;61750;55.036;73.312;2023-03-01T05:38:55;3.23;79.39
73509;SHT30;61750;55.036;73.312;2023-03-01T05:41:31;3.23;79.21
73509;SHT30;61750;55.036;73.312;2023-03-01T05:43:57;3.23;79.07
73509;SHT30;61750;55.036;73.312;2023-03-01T05:46:23;3.26;79.20
73509;SHT30;61750;55.036;73.312;2023-03-01T05:48:50;3.40;79.06
73509;SHT30;61750;55.036;73.312;2023-03-01T05:51:18;3.47;78.49
73509;SHT30;61750;55.036;73.312;2023-03-01T05:53:49;3.59;78.44
73509;SHT30;61750;55.036;73.312;2023-03-01T05:56:15;3.56;78.18
73509;SHT30;61750;55.036;73.312;2023-03-01T05:58:47;3.66;77.51
73509;SHT30;61750;55.036;73.312;2023-03-01T06:01:13;3.77;78.06
73509;SHT30;61750;55.036;73.312;2023-03-01T06:03:40;3.94;77.21
73509;SHT30;61750;55.036;73.312;2023-03-01T06:06:12;4.04;76.69
73509;SHT30;61750;55.036;73.312;2023-03-01T06:08:48;4.17;76.30
73509;SHT30;61750;55.036;73.312;2023-03-01T06:11:14;4.01;76.30
73509;SHT30;61750;55.036;73.312;2023-03-01T06:13:41;3.90;76.69
73509;SHT30;61750;55.036;73.312;2023-03-01T06:16:17;3.73;76.81
73509;SHT30;61750;55.036;73.312;2023-03-01T06:18:57;3.67;77.34
73509;SHT30;61750;55.036;73.312;2023-03-01T06:21:28;3.46;77.77
73509;SHT30;61750;55.036;73.312;2023-03-01T06:24:04;3.39;78.17
73509;SHT30;61750;55.036;73.312;2023-03-01T06:26:32;3.40;78.28
73509;SHT30;61750;55.036;73.312;2023-03-01T06:29:03;3.36;78.51
73509;SHT30;61750;55.036;73.312;2023-03-01T06:31:35;3.15;78.63
73509;SHT30;61750;55.036;73.312;2023-03-01T06:34:12;3.05;79.63
73509;SHT30;61750;55.036;73.312;2023-03-01T06:36:39;3.25;79.67
73509;SHT30;61750;55.036;73.312;2023-03-01T06:39:11;3.27;79.14
73509;SHT30;61750;55.036;73.312;2023-03-01T06:41:37;3.18;79.12
73509;SHT30;61750;55.036;73.312;2023-03-01T06:44:03;3.16;79.38
73509;SHT30;61750;55.036;73.312;2023-03-01T06:46:30;3.22;79.06
73509;SHT30;61750;55.036;73.312;2023-03-01T06:48:56;3.19;79.04
73509;SHT30;61750;55.036;73.312;2023-03-01T06:51:22;3.16;79.55
73509;SHT30;61750;55.036;73.312;2023-03-01T06:54:00;3.20;79.05
73509;SHT30;61750;55.036;73.312;2023-03-01T06:56:50;3.16;79.11
73509;SHT30;61750;55.036;73.312;2023-03-01T06:59:49;3.18;79.21
73509;SHT30;61750;55.036;73.312;2023-03-01T07:03:13;3.12;79.29
73509;SHT30;61750;55.036;73.312;2023-03-01T07:05:58;3.15;79.43
73509;SHT30;61750;55.036;73.312;2023-03-01T07:08:54;3.25;79.02
73509;SHT30;61750;55.036;73.312;2023-03-01T07:11:37;3.20;78.88
73509;SHT30;61750;55.036;73.312;2023-03-01T07:14:13;3.11;79.02
73509;SHT30;61750;55.036;73.312;2023-03-01T07:16:58;3.09;78.99
73509;SHT30;61750;55.036;73.312;2023-03-01T07:19:25;3.18;78.88
73509;SHT30;61750;55.036;73.312;2023-03-01T07:21:51;3.29;78.79
73509;SHT30;61750;55.036;73.312;2023-03-01T07:24:17;3.37;78.53
73509;SHT30;61750;55.036;73.312;2023-03-01T07:26:43;3.43;77.86
73509;SHT30;61750;55.036;73.312;2023-03-01T07:29:10;3.59;77.37
73509;SHT30;61750;55.036;73.312;2023-03-01T07:31:54;3.62;77.35
73509;SHT30;61750;55.036;73.312;2023-03-01T07:34:20;3.59;76.68
73509;SHT30;61750;55.036;73.312;2023-03-01T07:36:49;3.59;77.15
73509;SHT30;61750;55.036;73.312;2023-03-01T07:39:27;3.69;77.07
73509;SHT30;61750;55.036;73.312;2023-03-01T07:42:01;3.83;76.55
73509;SHT30;61750;55.036;73.312;2023-03-01T07:44:36;3.77;76.20
73509;SHT30;61750;55.036;73.312;2023-03-01T07:47:09;3.57;76.64
73509;SHT30;61750;55.036;73.312;2023-03-01T07:49:43;3.49;76.95
73509;SHT30;61750;55.036;73.312;2023-03-01T07:52:13;3.57;76.87
73509;SHT30;61750;55.036;73.312;2023-03-01T07:54:51;3.60;76.58
73509;SHT30;61750;55.036;73.312;2023-03-01T07:57:17;3.62;76.60
73509;SHT30;61750;55.036;73.312;2023-03-01T07:59:48;3.56;76.83
73509;SHT30;61750;55.036;73.312;2023-03-01T08:03:07;3.36;77.41
73509;SHT30;61750;55.036;73.312;2023-03-01T08:05:36;3.36;77.62
73509;SHT30;61750;55.036;73.312;2023-03-01T08:08:03;3.35;78.12
73509;SHT30;61750;55.036;73.312;2023-03-01T08:10:33;3.35;77.78
73509;SHT30;61750;55.036;73.312;2023-03-01T08:13:04;3.46;78.46
73509;SHT30;61750;55.036;73.312;2023-03-01T08:15:31;3.55;78.43
73509;SHT30;61750;55.036;73.312;2023-03-01T08:18:07;3.47;77.72
73509;SHT30;61750;55.036;73.312;2023-03-01T08:20:33;3.43;78.30
73509;SHT30;61750;55.036;73.312;2023-03-01T08:22:59;3.39;78.50
73509;SHT30;61750;55.036;73.312;2023-03-01T08:25:34;3.30;79.02
73509;SHT30;61750;55.036;73.312;2023-03-01T08:28:10;3.20;79.16
73509;SHT30;61750;55.036;73.312;2023-03-01T08:30:36;3.20;79.68
73509;SHT30;61750;55.036;73.312;2023-03-01T08:33:07;3.18;79.71
73509;SHT30;61750;55.036;73.312;2023-03-01T08:35:45;3.23;80.08
73509;SHT30;61750;55.036;73.312;2023-03-01T08:38:21;3.25;79.98
73509;SHT30;61750;55.036;73.312;2023-03-01T08:40:47;3.16;79.66
73509;SHT30;61750;55.036;73.312;2023-03-01T08:43:45;3.05;80.09
73509;SHT30;61750;55.036;73.312;2023-03-01T08:46:21;2.98;80.43
73509;SHT30;61750;55.036;73.312;2023-03-01T08:48:50;3.05;80.75
73509;SHT30;61750;55.036;73.312;2023-03-01T08:51:29;3.04;80.56
73509;SHT30;61750;55.036;73.312;2023-03-01T08:54:06;3.05;80.88
73509;SHT30;61750;55.036;73.312;2023-03-01T08:56:38;3.09;80.82
73509;SHT30;61750;55.036;73.312;2023-03-01T08:59:04;3.06;80.76
73509;SHT30;61750;55.036;73.312;2023-03-01T09:01:30;3.11;80.72
73509;SHT30;61750;55.036;73.312;2023-03-01T09:03:56;3.29;80.76
73509;SHT30;61750;55.036;73.312;2023-03-01T09:06:22;3.27;80.27
73509;SHT30;61750;55.036;73.312;2023-03-01T09:08:59;3.32;80.62
73509;SHT30;61750;55.036;73.312;2023-03-01T09:11:35;3.35;80.26
73509;SHT30;61750;55.036;73.312;2023-03-01T09:14:04;3.32;80.22
73509;SHT30;61750;55.036;73.312;2023-03-01T09:16:35;3.22;80.00
73509;SHT30;61750;55.036;73.312;2023-03-01T09:19:02;3.25;80.55
73509;SHT30;61750;55.036;73.312;2023-03-01T09:21:28;3.20;80.41
73509;SHT30;61750;55.036;73.312;2023-03-01T09:24:05;3.15;80.87
73509;SHT30;61750;55.036;73.312;2023-03-01T09:26:31;3.19;80.82
73509;SHT30;61750;55.036;73.312;2023-03-01T09:29:02;3.18;80.76
73509;SHT30;61750;55.036;73.312;2023-03-01T09:31:38;3.18;80.99
73509;SHT30;61750;55.036;73.312;2023-03-01T09:34:05;3.15;80.83
73509;SHT30;61750;55.036;73.312;2023-03-01T09:36:38;2.98;81.09
73509;SHT30;61750;55.036;73.312;2023-03-01T09:39:05;3.09;81.63
73509;SHT30;61750;55.036;73.312;2023-03-01T09:44:28;2.88;81.43
73509;SHT30;61750;55.036;73.312;2023-03-01T09:47:12;2.78;81.69
73509;SHT30;61750;55.036;73.312;2023-03-01T09:49:41;2.74;81.82
73509;SHT30;61750;55.036;73.312;2023-03-01T09:54:47;2.75;82.24
73509;SHT30;61750;55.036;73.312;2023-03-01T10:03:24;2.70;82.51
73509;SHT30;61750;55.036;73.312;2023-03-01T10:05:59;2.70;82.62
73509;SHT30;61750;55.036;73.312;2023-03-01T10:08:34;2.65;82.54
73509;SHT30;61750;55.036;73.312;2023-03-01T10:11:36;2.54;82.74
73509;SHT30;61750;55.036;73.312;2023-03-01T10:19:05;2.51;82.88
73509;SHT30;61750;55.036;73.312;2023-03-01T10:21:32;2.44;83.04
73509;SHT30;61750;55.036;73.312;2023-03-01T10:24:13;2.37;82.94
73509;SHT30;61750;55.036;73.312;2023-03-01T10:27:00;2.37;83.27
73509;SHT30;61750;55.036;73.312;2023-03-01T10:29:42;2.31;83.32
73509;SHT30;61750;55.036;73.312;2023-03-01T10:32:17;2.26;83.56
73509;SHT30;61750;55.036;73.312;2023-03-01T10:34:43;2.31;83.55
73509;SHT30;61750;55.036;73.312;2023-03-01T10:37:11;2.26;83.60
73509;SHT30;61750;55.036;73.312;2023-03-01T10:39:54;2.16;83.54
73509;SHT30;61750;55.036;73.312;2023-03-01T10:42:58;2.20;83.83
73509;SHT30;61750;55.036;73.312;2023-03-01T10:45:35;2.21;83.79
73509;SHT30;61750;55.036;73.312;2023-03-01T10:48:13;2.26;83.58
73509;SHT30;61750;55.036;73.312;2023-03-01T10:50:44;2.34;83.82
73509;SHT30;61750;55.036;73.312;2023-03-01T10:55:48;2.34;83.74
73509;SHT30;61750;55.036;73.312;2023-03-01T10:58:22;2.26;83.64
73509;SHT30;61750;55.036;73.312;2023-03-01T11:00:52;2.19;83.74
73509;SHT30;61750;55.036;73.312;2023-03-01T11:03:36;2.20;84.05
73509;SHT30;61750;55.036;73.312;2023-03-01T11:08:42;2.17;84.14
73509;SHT30;61750;55.036;73.312;2023-03-01T11:11:22;2.21;84.24
73509;SHT30;61750;55.036;73.312;2023-03-01T11:16:36;2.10;84.16
73509;SHT30;61750;55.036;73.312;2023-03-01T11:19:17;2.07;84.32
73509;SHT30;61750;55.036;73.312;2023-03-01T11:24:45;2.09;84.52
73509;SHT30;61750;55.036;73.312;2023-03-01T11:27:17;2.07;84.65
73509;SHT30;61750;55.036;73.312;2023-03-01T11:29:57;2.02;84.67
73509;SHT30;61750;55.036;73.312;2023-03-01T11:33:11;1.96;84.75
73509;SHT30;61750;55.036;73.312;2023-03-01T11:35:45;1.92;84.83
73509;SHT30;61750;55.036;73.312;2023-03-01T11:38:21;1.89;85.00
73509;SHT30;61750;55.036;73.312;2023-03-01T11:48:43;1.76;85.57
73509;SHT30;61750;55.036;73.312;2023-03-01T11:51:19;1.70;85.63
73509;SHT30;61750;55.036;73.312;2023-03-01T11:56:43;1.69;85.91
73509;SHT30;61750;55.036;73.312;2023-03-01T12:10:43;1.63;86.33
73509;SHT30;61750;55.036;73.312;2023-03-01T12:13:23;1.62;86.47
73509;SHT30;61750;55.036;73.312;2023-03-01T12:20:58;1.66;86.68
73509;SHT30;61750;55.036;73.312;2023-03-01T12:23:33;1.66;86.63
73509;SHT30;61750;55.036;73.312;2023-03-01T12:29:00;1.65;86.64
73509;SHT30;61750;55.036;73.312;2023-03-01T12:31:33;1.66;86.72
73509;SHT30;61750;55.036;73.312;2023-03-01T12:34:18;1.65;86.71
73509;SHT30;61750;55.036;73.312;2023-03-01T12:37:11;1.67;86.78
73509;SHT30;61750;55.036;73.312;2023-03-01T12:48:06;1.70;86.77
73509;SHT30;61750;55.036;73.312;2023-03-01T12:50:37;1.72;86.82
73509;SHT30;61750;55.036;73.312;2023-03-01T12:55:47;1.70;86.74
73509;SHT30;61750;55.036;73.312;2023-03-01T12:58:23;1.75;86.85
73509;SHT30;61750;55.036;73.312;2023-03-01T13:01:48;1.73;86.81
73509;SHT30;61750;55.036;73.312;2023-03-01T13:06:54;1.72;86.87
73509;SHT30;61750;55.036;73.312;2023-03-01T13:15:00;1.76;86.83
73509;SHT30;61750;55.036;73.312;2023-03-01T13:17:58;1.80;86.74
73509;SHT30;61750;55.036;73.312;2023-03-01T13:29:11;1.79;86.38
73509;SHT30;61750;55.036;73.312;2023-03-01T13:34:03;1.77;86.38
73509;SHT30;61750;55.036;73.312;2023-03-01T13:39:03;1.75;86.39
73509;SHT30;61750;55.036;73.312;2023-03-01T13:47:15;1.75;86.55
73509;SHT30;61750;55.036;73.312;2023-03-01T13:49:52;1.76;86.63
73509;SHT30;61750;55.036;73.312;2023-03-01T13:52:59;1.77;86.66
73509;SHT30;61750;55.036;73.312;2023-03-01T13:58:15;1.80;86.64
73509;SHT30;61750;55.036;73.312;2023-03-01T14:00:42;1.79;86.50
73509;SHT30;61750;55.036;73.312;2023-03-01T14:03:10;1.79;86.46
73509;SHT30;61750;55.036;73.312;2023-03-01T14:08:35;1.77;86.54
73509;SHT30;61750;55.036;73.312;2023-03-01T14:13:46;1.79;86.58
73509;SHT30;61750;55.036;73.312;2023-03-01T14:21:58;1.82;86.52
73509;SHT30;61750;55.036;73.312;2023-03-01T14:24:33;1.85;86.53
73509;SHT30;61750;55.036;73.312;2023-03-01T14:27:01;1.87;86.44
73509;SHT30;61750;55.036;73.312;2023-03-01T14:29:33;1.90;86.34
73509;SHT30;61750;55.036;73.312;2023-03-01T14:32:25;1.90;86.15
73509;SHT30;61750;55.036;73.312;2023-03-01T14:35:02;1.89;86.13
73509;SHT30;61750;55.036;73.312;2023-03-01T14:37:59;1.93;86.07
73509;SHT30;61750;55.036;73.312;2023-03-01T14:40:33;1.95;85.86
73509;SHT30;61750;55.036;73.312;2023-03-01T14:43:01;1.95;85.74
73509;SHT30;61750;55.036;73.312;2023-03-01T14:45:29;1.93;85.59
73509;SHT30;61750;55.036;73.312;2023-03-01T14:48:06;1.95;85.52
73509;SHT30;61750;55.036;73.312;2023-03-01T14:50:34;2.02;85.42
73509;SHT30;61750;55.036;73.312;2023-03-01T14:53:03;2.06;85.34
73509;SHT30;61750;55.036;73.312;2023-03-01T14:55:40;2.07;85.11
73509;SHT30;61750;55.036;73.312;2023-03-01T14:58:20;2.07;84.89
73509;SHT30;61750;55.036;73.312;2023-03-01T15:00:51;2.10;84.75
73509;SHT30;61750;55.036;73.312;2023-03-01T15:03:20;2.11;84.62
73509;SHT30;61750;55.036;73.312;2023-03-01T15:05:59;2.13;84.47
73509;SHT30;61750;55.036;73.312;2023-03-01T15:08:32;2.17;84.36
73509;SHT30;61750;55.036;73.312;2023-03-01T15:13:25;2.17;84.14
73509;SHT30;61750;55.036;73.312;2023-03-01T15:15:53;2.21;84.12
73509;SHT30;61750;55.036;73.312;2023-03-01T15:18:27;2.24;84.03
73509;SHT30;61750;55.036;73.312;2023-03-01T15:21:23;2.24;83.92
73509;SHT30;61750;55.036;73.312;2023-03-01T15:23:51;2.29;83.82
73509;SHT30;61750;55.036;73.312;2023-03-01T15:26:22;2.30;83.81
73509;SHT30;61750;55.036;73.312;2023-03-01T15:28:50;2.33;83.70
73509;SHT30;61750;55.036;73.312;2023-03-01T15:31:20;2.30;83.56
73509;SHT30;61750;55.036;73.312;2023-03-01T15:33:47;2.33;83.45
73509;SHT30;61750;55.036;73.312;2023-03-01T15:39:01;2.34;83.12
73509;SHT30;61750;55.036;73.312;2023-03-01T15:41:37;2.38;82.98
73509;SHT30;61750;55.036;73.312;2023-03-01T15:46:49;2.44;82.58
73509;SHT30;61750;55.036;73.312;2023-03-01T15:51:59;2.48;82.31
73509;SHT30;61750;55.036;73.312;2023-03-01T15:54:26;2.52;82.13
73509;SHT30;61750;55.036;73.312;2023-03-01T15:56:53;2.57;82.07
73509;SHT30;61750;55.036;73.312;2023-03-01T15:59:19;2.61;81.82
73509;SHT30;61750;55.036;73.312;2023-03-01T16:01:45;2.62;81.66
73509;SHT30;61750;55.036;73.312;2023-03-01T16:04:23;2.61;81.61
73509;SHT30;61750;55.036;73.312;2023-03-01T16:06:50;2.61;81.61
73509;SHT30;61750;55.036;73.312;2023-03-01T16:09:21;2.62;81.67
73509;SHT30;61750;55.036;73.312;2023-03-01T16:11:49;2.62;81.59
73509;SHT30;61750;55.036;73.312;2023-03-01T16:14:15;2.62;81.49
73509;SHT30;61750;55.036;73.312;2023-03-01T16:16:42;2.65;81.37
73509;SHT30;61750;55.036;73.312;2023-03-01T16:19:09;2.64;81.27
73509;SHT30;61750;55.036;73.312;2023-03-01T16:21:36;2.64;81.32
73509;SHT30;61750;55.036;73.312;2023-03-01T16:24:12;2.66;81.36
73509;SHT30;61750;55.036;73.312;2023-03-01T16:26:39;2.68;81.16
73509;SHT30;61750;55.036;73.312;2023-03-01T16:29:07;2.66;81.16
73509;SHT30;61750;55.036;73.312;2023-03-01T16:31:34;2.70;81.05
73509;SHT30;61750;55.036;73.312;2023-03-01T16:34:00;2.66;81.10
73509;SHT30;61750;55.036;73.312;2023-03-01T16:36:36;2.68;81.06
73509;SHT30;61750;55.036;73.312;2023-03-01T16:39:03;2.70;81.03
73509;SHT30;61750;55.036;73.312;2023-03-01T16:41:29;2.71;81.05
73509;SHT30;61750;55.036;73.312;2023-03-01T16:44:06;2.72;80.86
73509;SHT30;61750;55.036;73.312;2023-03-01T16:46:42;2.72;80.83
73509;SHT30;61750;55.036;73.312;2023-03-01T16:49:09;2.72;80.80
73509;SHT30;61750;55.036;73.312;2023-03-01T16:51:35;2.72;80.83
73509;SHT30;61750;55.036;73.312;2023-03-01T16:54:02;2.72;80.94
73509;SHT30;61750;55.036;73.312;2023-03-01T16:56:30;2.71;81.00
73509;SHT30;61750;55.036;73.312;2023-03-01T16:59:08;2.72;80.95
73509;SHT30;61750;55.036;73.312;2023-03-01T17:01:35;2.68;80.99
73509;SHT30;61750;55.036;73.312;2023-03-01T17:04:08;2.68;81.05
73509;SHT30;61750;55.036;73.312;2023-03-01T17:06:39;2.65;81.10
73509;SHT30;61750;55.036;73.312;2023-03-01T17:09:06;2.66;81.10
73509;SHT30;61750;55.036;73.312;2023-03-01T17:11:42;2.66;81.13
73509;SHT30;61750;55.036;73.312;2023-03-01T17:14:10;2.66;81.08
73509;SHT30;61750;55.036;73.312;2023-03-01T17:16:38;2.66;81.13
73509;SHT30;61750;55.036;73.312;2023-03-01T17:19:04;2.62;81.14
73509;SHT30;61750;55.036;73.312;2023-03-01T17:21:32;2.62;81.15
73509;SHT30;61750;55.036;73.312;2023-03-01T17:23:58;2.62;81.18
73509;SHT30;61750;55.036;73.312;2023-03-01T17:26:25;2.60;81.22
73509;SHT30;61750;55.036;73.312;2023-03-01T17:28:51;2.62;81.16
73509;SHT30;61750;55.036;73.312;2023-03-01T17:31:26;2.60;81.04
73509;SHT30;61750;55.036;73.312;2023-03-01T17:34:03;2.62;80.87
73509;SHT30;61750;55.036;73.312;2023-03-01T17:36:29;2.64;80.87
73509;SHT30;61750;55.036;73.312;2023-03-01T17:38:55;2.64;80.73
73509;SHT30;61750;55.036;73.312;2023-03-01T17:41:31;2.62;80.76
73509;SHT30;61750;55.036;73.312;2023-03-01T17:43:57;2.64;80.74
73509;SHT30;61750;55.036;73.312;2023-03-01T17:46:23;2.65;80.68
73509;SHT30;61750;55.036;73.312;2023-03-01T17:48:51;2.64;80.64
73509;SHT30;61750;55.036;73.312;2023-03-01T17:51:17;2.66;80.63
73509;SHT30;61750;55.036;73.312;2023-03-01T17:53:48;2.62;80.61
73509;SHT30;61750;55.036;73.312;2023-03-01T17:56:19;2.64;80.59
73509;SHT30;61750;55.036;73.312;2023-03-01T17:58:45;2.65;80.63
73509;SHT30;61750;55.036;73.312;2023-03-01T18:01:22;2.64;80.58
73509;SHT30;61750;55.036;73.312;2023-03-01T18:03:58;2.61;80.44
73509;SHT30;61750;55.036;73.312;2023-03-01T18:06:26;2.62;80.45
73509;SHT30;61750;55.036;73.312;2023-03-01T18:08:57;2.62;80.37
73509;SHT30;61750;55.036;73.312;2023-03-01T18:11:24;2.57;80.36